createdAt,value
2023-04-02T00:01:17.722Z,76.51
2023-04-02T00:04:17.019Z,76.76
2023-04-02T00:06:44.557Z,76.04
2023-04-02T00:09:26.675Z,76.53
2023-04-02T00:11:54.187Z,75.99
2023-04-02T00:14:28.629Z,76.02
2023-04-02T00:17:00.831Z,76.07
2023-04-02T00:19:36.656Z,76.07
2023-04-02T00:22:09.787Z,76.14
2023-04-02T00:24:39.710Z,76.24
2023-04-02T00:27:12.281Z,76.03
2023-04-02T00:29:48.659Z,76.38
2023-04-02T00:32:26.787Z,76.64
2023-04-02T00:34:55.042Z,76.29
2023-04-02T00:37:27.683Z,76.33
2023-04-02T00:40:01.701Z,76.99
2023-04-02T00:42:31.263Z,75.89
2023-04-02T00:45:02.682Z,75.86
2023-04-02T00:47:37.157Z,76.47
2023-04-02T00:50:22.046Z,76.70
2023-04-02T00:52:53.884Z,75.99
2023-04-02T00:55:25.321Z,76.18
2023-04-02T00:58:01.802Z,77.37
2023-04-02T01:00:34.191Z,78.55
2023-04-02T01:03:33.122Z,80.43
2023-04-02T01:06:06.799Z,81.09
2023-04-02T01:09:09.270Z,81.04
2023-04-02T01:12:12.662Z,81.30
2023-04-02T01:15:01.248Z,81.18
2023-04-02T01:17:58.788Z,82.89
2023-04-02T01:21:04.819Z,82.48
2023-04-02T01:23:48.033Z,82.35
2023-04-02T01:26:30.691Z,82.65
2023-04-02T01:29:09.322Z,82.75
2023-04-02T01:31:39.020Z,82.27
2023-04-02T01:34:11.724Z,82.36
2023-04-02T01:36:54.044Z,81.22
2023-04-02T01:39:43.850Z,80.49
2023-04-02T01:42:21.702Z,79.69
2023-04-02T01:44:53.267Z,80.26
2023-04-02T01:47:25.735Z,79.44
2023-04-02T01:50:00.279Z,79.18
2023-04-02T01:52:39.877Z,79.20
2023-04-02T01:55:09.366Z,78.65
2023-04-02T01:57:36.732Z,78.73
2023-04-02T02:00:07.619Z,78.18
2023-04-02T02:02:42.358Z,78.67
2023-04-02T02:05:15.057Z,78.56
2023-04-02T02:07:45.876Z,78.75
2023-04-02T02:10:25.125Z,79.01
2023-04-02T02:12:52.766Z,78.74
2023-04-02T02:15:23.654Z,78.82
2023-04-02T02:18:01.495Z,78.93
2023-04-02T02:20:30.321Z,78.53
2023-04-02T02:22:58.789Z,78.52
2023-04-02T02:25:30.875Z,78.83
2023-04-02T02:28:08.206Z,78.92
2023-04-02T02:30:43.947Z,78.62
2023-04-02T02:33:20.985Z,78.60
2023-04-02T02:35:57.312Z,78.37
2023-04-02T02:38:43.165Z,78.69
2023-04-02T02:41:25.920Z,78.92
2023-04-02T02:46:54.484Z,78.43
2023-04-02T02:49:27.999Z,78.17
2023-04-02T02:52:04.307Z,78.41
2023-04-02T02:54:44.811Z,78.26
2023-04-02T02:57:21.854Z,78.27
2023-04-02T02:59:52.972Z,77.84
2023-04-02T03:02:29.465Z,78.00
2023-04-02T03:05:00.363Z,77.73
2023-04-02T03:07:34.463Z,77.90
2023-04-02T03:10:24.470Z,77.92
2023-04-02T03:13:02.763Z,78.15
2023-04-02T03:15:40.486Z,78.55
2023-04-02T03:18:18.289Z,78.53
2023-04-02T03:20:52.756Z,78.34
2023-04-02T03:23:27.434Z,78.00
2023-04-02T03:26:04.812Z,78.42
2023-04-02T03:28:41.435Z,78.56
2023-04-02T03:31:20.272Z,78.33
2023-04-02T03:33:59.400Z,78.32
2023-04-02T03:36:39.422Z,78.11
2023-04-02T03:39:25.116Z,77.85
2023-04-02T03:42:08.323Z,78.66
2023-04-02T03:44:53.208Z,77.90
2023-04-02T03:47:37.656Z,78.01
2023-04-02T03:50:20.057Z,78.32
2023-04-02T03:52:53.432Z,78.42
2023-04-02T03:55:29.176Z,78.33
2023-04-02T03:58:07.575Z,78.84
2023-04-02T04:00:48.578Z,78.92
2023-04-02T04:03:26.219Z,79.36
2023-04-02T04:06:06.868Z,79.95
2023-04-02T04:08:44.707Z,79.73
2023-04-02T04:11:19.227Z,79.93
2023-04-02T04:13:57.315Z,80.48
2023-04-02T04:16:34.179Z,80.13
2023-04-02T04:19:12.322Z,80.82
2023-04-02T04:21:41.016Z,81.18
2023-04-02T04:24:20.731Z,80.96
2023-04-02T04:26:58.842Z,81.11
2023-04-02T04:29:40.994Z,81.05
2023-04-02T04:32:24.621Z,80.82
2023-04-02T04:34:57.087Z,81.24
2023-04-02T04:37:37.432Z,81.09
2023-04-02T04:40:18.617Z,81.26
2023-04-02T04:46:03.354Z,82.26
2023-04-02T04:48:40.572Z,81.81
2023-04-02T04:51:21.304Z,81.61
2023-04-02T04:53:54.065Z,82.12
2023-04-02T04:56:28.549Z,82.48
2023-04-02T04:59:17.391Z,82.46
2023-04-02T05:02:02.482Z,82.10
2023-04-02T05:04:36.372Z,82.88
2023-04-02T05:07:13.827Z,83.30
2023-04-02T05:09:56.170Z,83.50
2023-04-02T05:12:35.963Z,85.11
2023-04-02T05:15:17.953Z,85.25
2023-04-02T05:17:55.680Z,85.89
2023-04-02T05:20:30.027Z,85.78
2023-04-02T05:23:05.874Z,86.17
2023-04-02T05:25:35.299Z,86.32
2023-04-02T05:28:17.788Z,87.02
2023-04-02T05:30:53.584Z,87.09
2023-04-02T05:33:28.103Z,87.33
2023-04-02T05:36:03.483Z,87.71
2023-04-02T05:38:39.815Z,88.04
2023-04-02T05:41:24.231Z,87.63
2023-04-02T05:44:06.792Z,88.02
2023-04-02T05:46:42.295Z,87.92
2023-04-02T05:49:20.293Z,88.07
2023-04-02T05:51:57.540Z,87.84
2023-04-02T05:54:33.007Z,87.51
2023-04-02T05:57:09.992Z,87.40
2023-04-02T05:59:43.813Z,87.01
2023-04-02T06:02:23.697Z,87.18
2023-04-02T06:04:59.902Z,87.12
2023-04-02T06:07:42.484Z,86.84
2023-04-02T06:10:18.463Z,86.58
2023-04-02T06:12:54.283Z,86.15
2023-04-02T06:15:24.445Z,86.86
2023-04-02T06:18:06.217Z,86.23
2023-04-02T06:20:36.070Z,86.14
2023-04-02T06:23:34.669Z,85.18
2023-04-02T06:26:12.665Z,85.34
2023-04-02T06:28:47.688Z,84.68
2023-04-02T06:31:30.101Z,83.62
2023-04-02T06:33:57.734Z,83.26
2023-04-02T06:36:29.540Z,82.45
2023-04-02T06:39:09.209Z,82.40
2023-04-02T06:41:37.445Z,82.94
2023-04-02T06:44:32.086Z,82.35
2023-04-02T06:47:32.045Z,82.05
2023-04-02T06:50:08.196Z,81.34
2023-04-02T06:52:45.867Z,81.16
2023-04-02T06:55:31.707Z,80.58
2023-04-02T06:57:59.048Z,81.27
2023-04-02T07:00:37.469Z,82.66
2023-04-02T07:03:14.518Z,82.77
2023-04-02T07:05:43.145Z,82.07
2023-04-02T07:08:11.053Z,82.06
2023-04-02T07:10:38.092Z,81.84
2023-04-02T07:13:06.073Z,82.10
2023-04-02T07:15:34.680Z,82.17
2023-04-02T07:18:02.324Z,81.21
2023-04-02T07:20:33.149Z,80.90
2023-04-02T07:23:05.968Z,80.91
2023-04-02T07:25:33.715Z,80.49
2023-04-02T07:28:01.136Z,79.77
2023-04-02T07:30:30.485Z,79.79
2023-04-02T07:33:56.963Z,79.29
2023-04-02T07:36:50.528Z,79.21
2023-04-02T07:39:17.903Z,79.36
2023-04-02T07:41:53.264Z,80.17
2023-04-02T07:48:53.199Z,80.66
2023-04-02T07:51:31.180Z,80.17
2023-04-02T07:54:02.572Z,80.41
2023-04-02T07:56:45.437Z,79.38
2023-04-02T07:59:12.470Z,78.00
2023-04-02T08:01:39.391Z,77.93
2023-04-02T08:04:06.540Z,77.95
2023-04-02T08:06:33.908Z,77.45
2023-04-02T08:09:02.891Z,76.82
2023-04-02T08:11:31.903Z,77.00
2023-04-02T08:18:56.079Z,76.09
2023-04-02T08:21:25.985Z,75.99
2023-04-02T08:23:52.892Z,75.29
2023-04-02T08:26:21.287Z,75.08
2023-04-02T08:28:48.499Z,74.02
2023-04-02T08:31:15.405Z,74.13
2023-04-02T08:33:42.737Z,73.13
2023-04-02T08:36:17.121Z,73.26
2023-04-02T08:38:47.498Z,72.56
2023-04-02T08:41:24.414Z,72.54
2023-04-02T08:44:12.195Z,72.59
2023-04-02T08:46:48.409Z,72.11
2023-04-02T08:49:22.052Z,71.93
2023-04-02T08:51:51.015Z,72.00
2023-04-02T08:54:25.774Z,70.51
2023-04-02T08:57:00.963Z,70.42
2023-04-02T08:59:34.112Z,70.22
2023-04-02T09:02:29.414Z,69.68
2023-04-02T09:05:00.018Z,69.02
2023-04-02T09:07:27.945Z,68.37
2023-04-02T09:09:55.102Z,67.25
2023-04-02T09:12:28.172Z,67.04
2023-04-02T09:15:12.089Z,67.13
2023-04-02T09:17:52.982Z,66.61
2023-04-02T09:20:25.744Z,67.24
2023-04-02T09:22:55.680Z,66.80
2023-04-02T09:25:26.115Z,66.56
2023-04-02T09:27:58.360Z,67.25
2023-04-02T09:30:43.624Z,67.20
2023-04-02T09:33:10.885Z,67.17
2023-04-02T09:35:55.094Z,66.98
2023-04-02T09:38:25.943Z,66.82
2023-04-02T09:41:00.315Z,66.41
2023-04-02T09:43:32.136Z,66.73
2023-04-02T09:46:02.844Z,67.31
2023-04-02T09:48:34.791Z,65.88
2023-04-02T09:51:17.281Z,65.76
2023-04-02T09:53:47.439Z,65.07
2023-04-02T09:56:21.299Z,64.94
2023-04-02T09:59:05.821Z,63.99
2023-04-02T10:01:36.010Z,65.14
2023-04-02T10:04:07.825Z,65.47
2023-04-02T10:06:35.723Z,65.81
2023-04-02T10:09:28.062Z,65.29
2023-04-02T10:11:57.441Z,65.71
2023-04-02T10:14:31.741Z,65.20
2023-04-02T10:17:11.557Z,65.94
2023-04-02T10:19:45.634Z,67.32
2023-04-02T10:22:17.572Z,67.28
2023-04-02T10:24:44.770Z,66.82
2023-04-02T10:27:27.693Z,67.61
2023-04-02T10:30:15.361Z,66.09
2023-04-02T10:32:51.722Z,66.12
2023-04-02T10:35:40.350Z,66.49
2023-04-02T10:38:30.630Z,66.17
2023-04-02T10:41:07.771Z,66.42
2023-04-02T10:44:31.386Z,66.09
2023-04-02T10:47:17.092Z,65.87
2023-04-02T10:50:09.357Z,65.10
2023-04-02T10:52:45.893Z,65.02
2023-04-02T10:55:21.945Z,64.88
2023-04-02T10:57:54.128Z,65.35
2023-04-02T11:00:25.943Z,64.75
2023-04-02T11:03:02.471Z,63.61
2023-04-02T11:05:40.315Z,63.73
2023-04-02T11:08:18.484Z,64.01
2023-04-02T11:10:51.061Z,62.75
2023-04-02T11:13:28.183Z,61.53
2023-04-02T11:15:55.945Z,61.99
2023-04-02T11:18:29.544Z,61.19
2023-04-02T11:21:01.956Z,60.07
2023-04-02T11:23:33.586Z,61.02
2023-04-02T11:26:39.156Z,61.71
2023-04-02T11:29:21.107Z,62.54
2023-04-02T11:31:51.692Z,63.34
2023-04-02T11:35:24.498Z,64.32
2023-04-02T11:37:55.860Z,63.27
2023-04-02T11:40:47.458Z,64.63
2023-04-02T11:43:51.296Z,64.71
2023-04-02T11:46:42.673Z,65.55
2023-04-02T11:49:39.198Z,65.37
2023-04-02T11:52:22.990Z,65.18
2023-04-02T11:55:17.694Z,65.84
2023-04-02T11:58:25.454Z,67.09
2023-04-02T12:01:39.404Z,69.20
2023-04-02T12:04:45.867Z,69.12
2023-04-02T12:07:46.522Z,70.34
2023-04-02T12:10:20.723Z,70.73
2023-04-02T12:12:49.423Z,71.06
2023-04-02T12:15:42.267Z,71.19
2023-04-02T12:18:17.210Z,72.03
2023-04-02T12:20:51.828Z,75.00
2023-04-02T12:23:30.211Z,75.48
2023-04-02T12:26:43.132Z,75.76
2023-04-02T12:30:33.615Z,75.22
2023-04-02T12:33:42.964Z,74.85
2023-04-02T12:36:20.660Z,74.40
2023-04-02T12:38:51.550Z,75.72
2023-04-02T12:41:27.293Z,77.50
2023-04-02T12:44:03.091Z,76.92
2023-04-02T12:46:32.969Z,77.66
2023-04-02T12:49:06.863Z,76.98
2023-04-02T12:51:41.015Z,76.89
2023-04-02T12:54:16.122Z,75.08
2023-04-02T12:56:44.924Z,76.53
2023-04-02T12:59:30.090Z,76.15
2023-04-02T13:02:01.570Z,76.01
2023-04-02T13:04:28.934Z,74.25
2023-04-02T13:06:56.772Z,72.84
2023-04-02T13:09:35.022Z,74.60
2023-04-02T13:12:04.086Z,75.96
2023-04-02T13:14:31.517Z,76.36
2023-04-02T13:16:58.638Z,76.08
2023-04-02T13:19:30.698Z,76.26
2023-04-02T13:22:04.166Z,75.06
2023-04-02T13:24:34.063Z,75.35
2023-04-02T13:27:03.962Z,76.08
2023-04-02T13:29:32.712Z,76.23
2023-04-02T13:32:02.348Z,76.33
2023-04-02T13:34:30.246Z,75.10
2023-04-02T13:36:58.145Z,74.99
2023-04-02T13:39:27.174Z,74.87
2023-04-02T13:41:58.665Z,74.40
2023-04-02T13:44:29.833Z,75.12
2023-04-02T13:46:58.292Z,73.51
2023-04-02T13:49:26.550Z,72.66
2023-04-02T13:51:57.120Z,72.16
2023-04-02T13:54:28.856Z,71.74
2023-04-02T13:56:56.367Z,71.64
2023-04-02T13:59:24.204Z,71.44
2023-04-02T14:01:59.934Z,72.55
2023-04-02T14:04:35.465Z,72.75
2023-04-02T14:07:28.105Z,71.00
2023-04-02T14:10:11.761Z,71.37
2023-04-02T14:12:59.629Z,72.72
2023-04-02T14:15:45.256Z,73.03
2023-04-02T14:18:39.616Z,73.04
2023-04-02T14:21:23.169Z,73.74
2023-04-02T14:24:10.475Z,74.03
2023-04-02T14:27:05.699Z,75.01
2023-04-02T14:29:47.494Z,75.50
2023-04-02T14:32:25.670Z,74.33
2023-04-02T14:35:07.782Z,73.77
2023-04-02T14:37:45.960Z,74.22
2023-04-02T14:40:25.173Z,75.24
2023-04-02T14:43:00.517Z,75.02
2023-04-02T14:45:48.068Z,73.73
2023-04-02T14:48:34.872Z,74.50
2023-04-02T14:51:13.469Z,74.97
2023-04-02T14:53:56.305Z,74.17
2023-04-02T14:56:25.467Z,73.48
2023-04-02T14:59:07.273Z,73.04
2023-04-02T15:01:43.582Z,73.11
2023-04-02T15:04:18.446Z,74.84
2023-04-02T15:06:53.490Z,74.37
2023-04-02T15:09:31.294Z,73.57
2023-04-02T15:12:07.159Z,71.88
2023-04-02T15:14:41.063Z,72.48
2023-04-02T15:17:11.478Z,72.40
2023-04-02T15:19:38.935Z,72.59
2023-04-02T15:22:29.006Z,72.54
2023-04-02T15:25:12.250Z,72.09
2023-04-02T15:28:01.965Z,71.96
2023-04-02T15:30:35.868Z,71.87
2023-04-02T15:33:41.441Z,72.65
2023-04-02T15:36:43.262Z,72.58
2023-04-02T15:39:41.228Z,71.43
2023-04-02T15:42:19.973Z,71.66
2023-04-02T15:45:15.995Z,73.11
2023-04-02T15:48:13.997Z,74.29
2023-04-02T15:50:58.965Z,73.48
2023-04-02T15:53:39.391Z,73.11
2023-04-02T15:56:24.510Z,72.42
2023-04-02T15:59:26.298Z,72.06
2023-04-02T16:02:02.133Z,69.66
2023-04-02T16:04:46.250Z,69.33
2023-04-02T16:07:30.362Z,70.26
2023-04-02T16:10:11.774Z,72.12
2023-04-02T16:12:41.336Z,71.57
2023-04-02T16:15:17.518Z,71.19
2023-04-02T16:17:51.220Z,71.12
2023-04-02T16:20:24.657Z,71.59
2023-04-02T16:23:02.191Z,71.29
2023-04-02T16:25:38.936Z,71.42
2023-04-02T16:28:23.287Z,71.71
2023-04-02T16:31:03.624Z,72.29
2023-04-02T16:34:00.436Z,71.30
2023-04-02T16:36:49.666Z,71.97
2023-04-02T16:39:38.978Z,71.21
2023-04-02T16:42:32.381Z,71.10
2023-04-02T16:45:37.227Z,71.33
2023-04-02T16:48:17.592Z,70.75
2023-04-02T16:51:20.839Z,70.91
2023-04-02T16:54:04.635Z,71.55
2023-04-02T16:57:09.968Z,70.69
2023-04-02T16:59:57.963Z,70.59
2023-04-02T17:03:06.010Z,70.29
2023-04-02T17:06:00.379Z,70.86
2023-04-02T17:08:53.811Z,71.00
2023-04-02T17:11:35.162Z,71.27
2023-04-02T17:14:06.514Z,71.96
2023-04-02T17:16:43.305Z,72.62
2023-04-02T17:19:16.581Z,71.22
2023-04-02T17:21:48.890Z,70.72
2023-04-02T17:24:26.327Z,70.96
2023-04-02T17:27:00.464Z,69.59
2023-04-02T17:29:36.661Z,70.89
2023-04-02T17:32:17.848Z,70.03
2023-04-02T17:34:46.316Z,70.46
2023-04-02T17:37:34.819Z,70.62
2023-04-02T17:40:23.480Z,70.15
2023-04-02T17:43:03.239Z,71.41
2023-04-02T17:45:46.329Z,70.06
2023-04-02T17:48:27.908Z,70.36
2023-04-02T17:51:20.597Z,70.41
2023-04-02T17:54:05.937Z,70.25
2023-04-02T17:56:57.067Z,70.02
2023-04-02T17:59:55.488Z,69.86
2023-04-02T18:02:49.285Z,70.15
2023-04-02T18:05:28.112Z,69.85
2023-04-02T18:08:12.423Z,68.17
2023-04-02T18:10:59.796Z,69.05
2023-04-02T18:13:35.088Z,67.69
2023-04-02T18:16:18.220Z,67.70
2023-04-02T18:19:10.531Z,67.88
2023-04-02T18:21:48.625Z,68.50
2023-04-02T18:24:46.022Z,67.25
2023-04-02T18:27:37.396Z,67.90
2023-04-02T18:30:18.357Z,68.78
2023-04-02T18:33:27.354Z,67.77
2023-04-02T18:36:06.550Z,67.37
2023-04-02T18:38:44.433Z,67.78
2023-04-02T18:41:35.547Z,67.22
2023-04-02T18:44:30.078Z,67.47
2023-04-02T18:47:08.065Z,65.92
2023-04-02T18:49:39.204Z,66.81
2023-04-02T18:52:14.089Z,65.91
2023-04-02T18:54:48.748Z,66.08
2023-04-02T18:57:24.044Z,66.52
2023-04-02T19:00:00.212Z,67.53
2023-04-02T19:02:47.013Z,67.32
2023-04-02T19:05:23.868Z,65.74
2023-04-02T19:08:01.615Z,66.65
2023-04-02T19:10:33.505Z,66.55
2023-04-02T19:13:02.282Z,66.62
2023-04-02T19:15:40.529Z,65.46
2023-04-02T19:18:22.001Z,66.42
2023-04-02T19:20:57.521Z,66.00
2023-04-02T19:23:52.478Z,65.74
2023-04-02T19:26:27.316Z,65.48
2023-04-02T19:29:17.637Z,65.82
2023-04-02T19:31:56.893Z,65.92
2023-04-02T19:34:38.265Z,65.11
2023-04-02T19:37:18.012Z,64.72
2023-04-02T19:40:25.846Z,65.94
2023-04-02T19:42:54.448Z,65.95
2023-04-02T19:45:39.405Z,65.13
2023-04-02T19:48:15.755Z,64.94
2023-04-02T19:50:43.341Z,64.78
2023-04-02T19:53:10.591Z,64.44
2023-04-02T19:55:39.370Z,65.73
2023-04-02T19:58:17.693Z,66.04
2023-04-02T20:00:48.344Z,66.12
2023-04-02T20:03:15.256Z,64.13
2023-04-02T20:05:43.136Z,64.08
2023-04-02T20:08:10.815Z,64.80
2023-04-02T20:10:39.104Z,63.34
2023-04-02T20:13:06.194Z,64.60
2023-04-02T20:15:39.265Z,63.08
2023-04-02T20:18:10.907Z,62.76
2023-04-02T20:21:04.288Z,63.07
2023-04-02T20:23:31.660Z,63.34
2023-04-02T20:25:58.635Z,63.55
2023-04-02T20:28:27.679Z,63.67
2023-04-02T20:31:06.181Z,63.36
2023-04-02T20:33:36.633Z,64.35
2023-04-02T20:36:07.221Z,63.21
2023-04-02T20:38:35.118Z,64.76
2023-04-02T20:41:04.191Z,64.29
2023-04-02T20:43:31.247Z,64.23
2023-04-02T20:46:01.360Z,63.82
2023-04-02T20:48:29.537Z,64.44
2023-04-02T20:50:58.741Z,64.01
2023-04-02T20:53:26.264Z,63.25
2023-04-02T20:55:53.162Z,65.10
2023-04-02T20:58:20.647Z,64.56
2023-04-02T21:00:47.621Z,63.97
2023-04-02T21:03:15.899Z,63.88
2023-04-02T21:05:43.755Z,64.89
2023-04-02T21:08:12.517Z,67.49
2023-04-02T21:10:40.681Z,61.91
2023-04-02T21:13:07.761Z,63.79
2023-04-02T21:15:34.856Z,64.81
2023-04-02T21:18:02.103Z,62.76
2023-04-02T21:20:30.714Z,63.88
2023-04-02T21:22:57.775Z,64.09
2023-04-02T21:25:26.362Z,63.77
2023-04-02T21:27:54.497Z,61.28
2023-04-02T21:30:21.928Z,66.57
2023-04-02T21:32:49.511Z,64.24
2023-04-02T21:35:16.598Z,59.92
2023-04-02T21:37:44.264Z,61.11
2023-04-02T21:40:12.302Z,64.16
2023-04-02T21:42:41.930Z,62.73
2023-04-02T21:45:09.928Z,59.43
2023-04-02T21:47:37.703Z,58.31
2023-04-02T21:50:06.159Z,59.20
2023-04-02T21:52:33.166Z,59.76
2023-04-02T21:55:00.038Z,57.43
2023-04-02T21:57:27.036Z,60.86
2023-04-02T21:59:55.959Z,62.08
2023-04-02T22:02:22.979Z,59.11
2023-04-02T22:04:50.102Z,61.83
2023-04-02T22:07:17.142Z,60.15
2023-04-02T22:09:46.023Z,58.52
2023-04-02T22:12:12.966Z,58.43
2023-04-02T22:14:43.370Z,57.70
2023-04-02T22:17:11.646Z,62.79
2023-04-02T22:19:38.479Z,60.09
2023-04-02T22:22:05.358Z,58.14
2023-04-02T22:24:32.504Z,60.11
2023-04-02T22:26:59.478Z,57.94
2023-04-02T22:29:26.549Z,57.37
2023-04-02T22:31:56.050Z,60.87
2023-04-02T22:34:24.509Z,60.40
2023-04-02T22:36:51.499Z,60.86
2023-04-02T22:39:18.688Z,59.58
2023-04-02T22:41:45.661Z,59.51
2023-04-02T22:44:15.814Z,61.60
2023-04-02T22:46:42.867Z,59.22
2023-04-02T22:49:09.965Z,59.88
2023-04-02T22:51:38.323Z,60.43
2023-04-02T22:54:05.678Z,60.03
2023-04-02T22:56:32.559Z,61.54
2023-04-02T22:58:59.516Z,60.53
2023-04-02T23:01:32.858Z,60.10
2023-04-02T23:04:00.360Z,61.92
2023-04-02T23:06:28.467Z,59.89
2023-04-02T23:08:57.903Z,62.06
2023-04-02T23:11:27.683Z,59.27
2023-04-02T23:13:58.259Z,62.15
2023-04-02T23:16:27.900Z,62.49
2023-04-02T23:18:56.049Z,62.54
2023-04-02T23:21:24.511Z,62.42
2023-04-02T23:23:51.507Z,63.54
2023-04-02T23:26:22.430Z,62.02
2023-04-02T23:28:50.413Z,61.51
2023-04-02T23:31:20.142Z,60.37
2023-04-02T23:33:47.126Z,60.91
2023-04-02T23:36:20.489Z,61.91
2023-04-02T23:38:47.493Z,61.15
2023-04-02T23:41:15.821Z,61.62
2023-04-02T23:43:44.391Z,63.53
2023-04-02T23:46:11.511Z,62.19
2023-04-02T23:48:38.901Z,63.21
2023-04-02T23:51:06.463Z,62.91
2023-04-02T23:53:34.773Z,62.90
2023-04-02T23:56:01.769Z,64.10
2023-04-02T23:58:28.926Z,64.48
